createdAt,value
2023-04-24T00:02:33.090Z,0.35
2023-04-24T00:07:35.557Z,0.30
2023-04-24T00:12:37.815Z,0.20
2023-04-24T00:17:39.933Z,0.30
2023-04-24T00:22:41.917Z,0.40
2023-04-24T00:27:43.731Z,0.32
2023-04-24T00:32:45.568Z,0.30
2023-04-24T00:37:47.400Z,0.30
2023-04-24T00:42:49.789Z,0.30
2023-04-24T00:47:54.104Z,0.30
2023-04-24T00:52:56.427Z,0.30
2023-04-24T00:57:58.441Z,0.30
2023-04-24T01:03:05.932Z,0.30
2023-04-24T01:08:08.299Z,0.20
2023-04-24T01:13:10.140Z,0.60
2023-04-24T01:18:12.085Z,0.50
2023-04-24T01:23:13.874Z,0.38
2023-04-24T01:28:15.718Z,0.32
2023-04-24T01:33:17.922Z,0.45
2023-04-24T01:38:19.910Z,0.50
2023-04-24T01:43:22.266Z,0.40
2023-04-24T01:48:24.284Z,0.43
2023-04-24T01:53:26.090Z,0.45
2023-04-24T01:58:28.472Z,1.00
2023-04-24T02:03:30.519Z,0.55
2023-04-24T02:08:32.419Z,0.50
2023-04-24T02:13:34.260Z,0.50
2023-04-24T02:18:36.382Z,0.60
2023-04-24T02:23:38.152Z,0.60
2023-04-24T02:28:40.018Z,0.45
2023-04-24T02:33:41.937Z,0.40
2023-04-24T02:38:43.788Z,0.55
2023-04-24T02:43:45.535Z,0.30
2023-04-24T02:48:47.340Z,0.50
2023-04-24T02:53:49.069Z,0.60
2023-04-24T02:58:50.841Z,0.75
2023-04-24T03:03:52.883Z,0.70
2023-04-24T03:08:55.269Z,0.50
2023-04-24T03:13:57.038Z,0.70
2023-04-24T03:18:58.801Z,0.77
2023-04-24T03:24:00.578Z,0.40
2023-04-24T03:29:02.754Z,0.55
2023-04-24T03:34:04.566Z,0.52
2023-04-24T03:39:06.720Z,0.60
2023-04-24T03:44:08.492Z,0.55
2023-04-24T03:49:10.275Z,0.70
2023-04-24T03:54:12.078Z,0.47
2023-04-24T03:59:14.628Z,0.22
2023-04-24T04:04:16.721Z,0.50
2023-04-24T04:09:18.676Z,0.60
2023-04-24T04:14:20.531Z,1.00
2023-04-24T04:19:22.771Z,0.43
2023-04-24T04:24:25.399Z,0.50
2023-04-24T04:29:27.231Z,0.60
2023-04-24T04:34:29.088Z,0.70
2023-04-24T04:39:31.802Z,0.57
2023-04-24T04:44:33.944Z,0.47
2023-04-24T04:49:35.886Z,0.40
2023-04-24T04:54:37.690Z,0.50
2023-04-24T04:59:39.593Z,0.50
2023-04-24T05:04:41.566Z,0.70
2023-04-24T05:09:43.874Z,0.38
2023-04-24T05:14:45.773Z,0.45
2023-04-24T05:19:47.741Z,0.50
2023-04-24T05:24:49.532Z,0.50
2023-04-24T05:29:51.272Z,0.60
2023-04-24T05:34:54.453Z,0.63
2023-04-24T05:39:56.230Z,0.35
2023-04-24T05:44:58.146Z,0.47
2023-04-24T05:49:59.974Z,0.57
2023-04-24T05:55:02.035Z,0.40
2023-04-24T06:00:06.116Z,0.50
2023-04-24T06:05:09.659Z,0.38
2023-04-24T06:10:11.847Z,0.75
2023-04-24T06:15:14.137Z,0.40
2023-04-24T06:20:15.996Z,0.30
2023-04-24T06:25:17.836Z,0.32
2023-04-24T06:30:19.653Z,0.40
2023-04-24T06:35:21.466Z,0.30
2023-04-24T06:40:23.802Z,0.30
2023-04-24T06:45:25.792Z,0.20
2023-04-24T06:50:27.704Z,0.50
2023-04-24T06:55:29.662Z,0.40
2023-04-24T07:00:31.504Z,0.40
2023-04-24T07:05:35.398Z,0.52
2023-04-24T07:10:37.306Z,0.50
2023-04-24T07:15:39.246Z,0.50
2023-04-24T07:20:41.098Z,0.60
2023-04-24T07:25:43.175Z,0.45
2023-04-24T07:30:45.193Z,0.30
2023-04-24T07:35:47.005Z,0.85
2023-04-24T07:40:49.867Z,0.45
2023-04-24T07:45:52.565Z,0.50
2023-04-24T07:50:55.261Z,1.13
2023-04-24T07:55:57.736Z,0.45
2023-04-24T08:00:59.610Z,0.70
2023-04-24T08:06:01.920Z,0.50
2023-04-24T08:11:03.814Z,0.85
2023-04-24T08:16:05.790Z,0.70
2023-04-24T08:21:07.654Z,1.45
2023-04-24T08:26:09.611Z,0.85
2023-04-24T08:31:11.476Z,0.80
2023-04-24T08:36:13.340Z,1.00
2023-04-24T08:41:17.224Z,0.95
2023-04-24T08:46:20.742Z,1.23
2023-04-24T08:51:23.885Z,0.90
2023-04-24T08:56:26.285Z,1.40
2023-04-24T09:01:28.608Z,1.40
2023-04-24T09:06:31.990Z,0.82
2023-04-24T09:11:36.613Z,1.25
2023-04-24T09:16:38.436Z,1.20
2023-04-24T09:21:41.558Z,1.77
2023-04-24T09:26:43.554Z,1.20
2023-04-24T09:31:47.123Z,1.10
2023-04-24T09:36:49.209Z,0.93
2023-04-24T09:41:53.203Z,1.17
2023-04-24T09:46:56.652Z,1.20
2023-04-24T09:52:08.945Z,0.80
2023-04-24T09:57:11.008Z,1.23
2023-04-24T10:02:20.990Z,0.77
2023-04-24T10:07:22.896Z,1.00
2023-04-24T10:12:26.287Z,1.08
2023-04-24T10:17:29.588Z,1.35
2023-04-24T10:22:31.980Z,1.55
2023-04-24T10:27:34.147Z,0.90
2023-04-24T10:32:36.478Z,1.23
2023-04-24T10:37:40.986Z,0.65
2023-04-24T10:42:45.620Z,1.00
2023-04-24T10:48:12.414Z,0.80
2023-04-24T10:53:24.535Z,0.77
2023-04-24T10:58:38.679Z,0.90
2023-04-24T11:03:52.325Z,1.05
2023-04-24T11:09:04.033Z,1.00
2023-04-24T11:14:07.978Z,0.82
2023-04-24T11:19:18.532Z,1.08
2023-04-24T11:24:52.140Z,1.35
2023-04-24T11:29:57.321Z,1.00
2023-04-24T11:35:17.502Z,1.00
2023-04-24T11:40:27.124Z,1.02
2023-04-24T11:45:31.226Z,1.23
2023-04-24T11:50:32.988Z,0.70
2023-04-24T11:55:34.872Z,0.70
2023-04-24T12:00:37.068Z,1.00
2023-04-24T12:05:40.354Z,1.42
2023-04-24T12:10:42.252Z,0.90
2023-04-24T12:15:44.746Z,1.10
2023-04-24T12:20:46.630Z,0.85
2023-04-24T12:25:48.421Z,1.10
2023-04-24T12:30:51.515Z,1.20
2023-04-24T12:35:55.154Z,1.23
2023-04-24T12:41:08.101Z,1.13
2023-04-24T12:46:09.989Z,1.02
2023-04-24T12:51:12.131Z,1.23
2023-04-24T12:56:13.879Z,1.63
2023-04-24T13:01:15.854Z,1.20
2023-04-24T13:06:17.760Z,1.17
2023-04-24T13:11:19.668Z,0.98
2023-04-24T13:16:21.524Z,0.90
2023-04-24T13:21:23.363Z,0.70
2023-04-24T13:26:25.261Z,0.82
2023-04-24T13:31:27.274Z,0.70
2023-04-24T13:36:29.174Z,0.90
2023-04-24T13:41:31.781Z,1.00
2023-04-24T13:46:33.930Z,0.95
2023-04-24T13:51:35.859Z,1.20
2023-04-24T13:56:37.768Z,1.45
2023-04-24T14:01:40.212Z,0.90
2023-04-24T14:06:42.123Z,0.93
2023-04-24T14:11:44.049Z,1.00
2023-04-24T14:16:45.906Z,0.98
2023-04-24T14:21:47.811Z,0.55
2023-04-24T14:26:49.690Z,0.80
2023-04-24T14:31:51.647Z,0.85
2023-04-24T14:36:54.720Z,1.30
2023-04-24T14:41:56.598Z,1.10
2023-04-24T14:46:58.456Z,0.85
2023-04-24T14:52:00.697Z,0.88
2023-04-24T14:57:02.855Z,1.13
2023-04-24T15:02:15.508Z,0.80
2023-04-24T15:07:18.066Z,0.82
2023-04-24T15:12:20.238Z,0.90
2023-04-24T15:17:22.083Z,0.70
2023-04-24T15:22:23.932Z,0.68
2023-04-24T15:27:25.934Z,0.70
2023-04-24T15:32:28.090Z,0.93
2023-04-24T15:37:29.967Z,0.93
2023-04-24T15:42:31.874Z,0.95
2023-04-24T15:47:33.851Z,0.52
2023-04-24T15:52:36.237Z,0.70
2023-04-24T15:57:38.321Z,0.73
2023-04-24T16:02:40.715Z,0.88
2023-04-24T16:07:42.815Z,0.80
2023-04-24T16:12:44.615Z,0.47
2023-04-24T16:17:46.670Z,0.80
2023-04-24T16:22:48.610Z,0.73
2023-04-24T16:27:52.897Z,0.60
2023-04-24T16:32:54.823Z,0.47
2023-04-24T16:37:56.637Z,0.60
2023-04-24T16:42:58.704Z,0.68
2023-04-24T16:48:01.054Z,0.63
2023-04-24T16:53:02.937Z,0.80
2023-04-24T16:58:04.782Z,0.50
2023-04-24T17:03:06.708Z,0.52
2023-04-24T17:08:08.685Z,0.30
2023-04-24T17:13:10.596Z,0.50
2023-04-24T17:18:12.524Z,0.47
2023-04-24T17:23:14.543Z,0.57
2023-04-24T17:28:27.871Z,0.47
2023-04-24T17:33:31.227Z,1.05
2023-04-24T17:38:33.670Z,0.40
2023-04-24T17:43:35.418Z,0.40
2023-04-24T17:48:37.333Z,0.35
2023-04-24T17:53:39.843Z,0.35
2023-04-24T17:58:41.864Z,0.55
2023-04-24T18:03:47.026Z,0.50
2023-04-24T18:08:49.315Z,0.30
2023-04-24T18:13:51.712Z,0.38
2023-04-24T18:18:56.669Z,0.50
2023-04-24T18:24:00.649Z,0.55
2023-04-24T18:29:02.449Z,0.40
2023-04-24T18:34:04.703Z,0.40
2023-04-24T18:39:06.622Z,0.40
2023-04-24T18:44:09.427Z,0.60
2023-04-24T18:49:11.234Z,0.45
2023-04-24T18:54:13.105Z,0.77
2023-04-24T18:59:14.978Z,0.38
2023-04-24T19:04:16.834Z,0.40
2023-04-24T19:09:18.742Z,0.40
2023-04-24T19:14:22.844Z,0.40
2023-04-24T19:19:26.338Z,0.30
2023-04-24T19:24:29.451Z,0.50
2023-04-24T19:29:31.262Z,0.40
2023-04-24T19:34:34.813Z,0.40
2023-04-24T19:39:36.845Z,0.40
2023-04-24T19:44:38.748Z,0.70
2023-04-24T19:49:40.644Z,0.40
2023-04-24T19:54:42.425Z,0.60
2023-04-24T19:59:44.196Z,0.43
2023-04-24T20:04:46.359Z,0.38
2023-04-24T20:09:48.541Z,0.40
2023-04-24T20:14:50.361Z,0.43
2023-04-24T20:19:52.206Z,0.43
2023-04-24T20:24:54.147Z,0.35
2023-04-24T20:29:56.220Z,0.40
2023-04-24T20:34:58.568Z,0.68
2023-04-24T20:40:05.102Z,0.45
2023-04-24T20:45:08.175Z,0.90
2023-04-24T20:50:10.600Z,0.50
2023-04-24T20:55:12.386Z,0.80
2023-04-24T21:00:14.803Z,0.68
2023-04-24T21:05:16.729Z,1.70
2023-04-24T21:10:19.690Z,0.60
2023-04-24T21:15:21.592Z,0.57
2023-04-24T21:20:23.379Z,0.60
2023-04-24T21:25:25.209Z,0.60
2023-04-24T21:30:27.162Z,0.82
2023-04-24T21:35:28.951Z,0.47
2023-04-24T21:40:30.882Z,0.65
2023-04-24T21:45:32.664Z,0.50
2023-04-24T21:50:34.472Z,0.40
2023-04-24T21:55:36.269Z,0.43
2023-04-24T22:00:38.133Z,0.45
2023-04-24T22:05:39.862Z,0.50
2023-04-24T22:10:41.681Z,0.52
2023-04-24T22:15:43.533Z,0.77
2023-04-24T22:20:46.866Z,0.70
2023-04-24T22:25:48.775Z,0.50
2023-04-24T22:30:50.639Z,0.77
2023-04-24T22:35:52.417Z,0.45
2023-04-24T22:40:54.423Z,0.40
2023-04-24T22:45:56.554Z,0.40
2023-04-24T22:50:58.518Z,0.63
2023-04-24T22:56:00.505Z,0.40
2023-04-24T23:01:02.402Z,0.47
2023-04-24T23:06:04.604Z,0.57
2023-04-24T23:11:06.516Z,0.50
2023-04-24T23:16:08.332Z,0.40
2023-04-24T23:21:10.507Z,0.60
2023-04-24T23:26:12.370Z,0.43
2023-04-24T23:31:14.101Z,0.60
2023-04-24T23:36:16.013Z,0.68
2023-04-24T23:41:18.828Z,0.65
2023-04-24T23:46:20.663Z,0.55
2023-04-24T23:51:22.817Z,0.50
2023-04-24T23:56:26.878Z,0.60
